createdAt,value
2023-12-14T00:01:25.349Z,100.00
2023-12-14T00:04:28.154Z,100.00
2023-12-14T00:07:30.659Z,100.00
2023-12-14T00:10:33.465Z,100.00
2023-12-14T00:13:36.804Z,100.00
2023-12-14T00:16:39.646Z,100.00
2023-12-14T00:19:42.196Z,100.00
2023-12-14T00:22:44.856Z,100.00
2023-12-14T00:25:47.529Z,100.00
2023-12-14T00:28:50.272Z,100.00
2023-12-14T00:31:53.041Z,100.00
2023-12-14T00:34:55.739Z,100.00
2023-12-14T00:37:58.276Z,100.00
2023-12-14T00:41:01.064Z,100.00
2023-12-14T00:44:03.568Z,100.00
2023-12-14T00:47:06.387Z,100.00
2023-12-14T00:50:09.474Z,100.00
2023-12-14T00:53:12.276Z,100.00
2023-12-14T00:56:14.941Z,100.00
2023-12-14T00:59:17.790Z,100.00
2023-12-14T01:02:20.296Z,100.00
2023-12-14T01:05:23.116Z,100.00
2023-12-14T01:08:25.551Z,100.00
2023-12-14T01:11:28.353Z,100.00
2023-12-14T01:14:30.792Z,100.00
2023-12-14T01:17:37.225Z,100.00
2023-12-14T01:20:39.842Z,100.00
2023-12-14T01:23:42.514Z,100.00
2023-12-14T01:26:44.879Z,100.00
2023-12-14T01:29:47.606Z,100.00
2023-12-14T01:32:50.185Z,100.00
2023-12-14T01:35:52.813Z,100.00
2023-12-14T01:38:55.165Z,100.00
2023-12-14T01:41:57.929Z,100.00
2023-12-14T01:45:00.426Z,100.00
2023-12-14T01:48:03.363Z,100.00
2023-12-14T01:51:05.982Z,100.00
2023-12-14T01:54:08.696Z,100.00
2023-12-14T01:57:11.193Z,100.00
2023-12-14T02:00:23.717Z,100.00
2023-12-14T02:03:26.488Z,100.00
2023-12-14T02:06:28.840Z,100.00
2023-12-14T02:09:31.555Z,100.00
2023-12-14T02:12:34.975Z,100.00
2023-12-14T02:15:39.229Z,100.00
2023-12-14T02:18:41.918Z,100.00
2023-12-14T02:21:44.592Z,100.00
2023-12-14T02:24:46.894Z,100.00
2023-12-14T02:27:51.591Z,100.00
2023-12-14T02:30:54.213Z,100.00
2023-12-14T02:33:56.947Z,100.00
2023-12-14T02:36:59.363Z,100.00
2023-12-14T02:40:02.072Z,100.00
2023-12-14T02:43:04.505Z,100.00
2023-12-14T02:46:07.536Z,100.00
2023-12-14T02:49:09.988Z,100.00
2023-12-14T02:52:12.716Z,100.00
2023-12-14T02:55:15.149Z,100.00
2023-12-14T02:58:19.090Z,100.00
2023-12-14T03:01:24.921Z,100.00
2023-12-14T03:04:28.106Z,100.00
2023-12-14T03:07:30.567Z,100.00
2023-12-14T03:10:33.395Z,100.00
2023-12-14T03:13:35.921Z,100.00
2023-12-14T03:16:38.659Z,100.00
2023-12-14T03:19:42.248Z,100.00
2023-12-14T03:22:45.113Z,100.00
2023-12-14T03:25:47.547Z,100.00
2023-12-14T03:28:50.249Z,100.00
2023-12-14T03:31:52.648Z,100.00
2023-12-14T03:34:56.336Z,100.00
2023-12-14T03:37:58.957Z,100.00
2023-12-14T03:41:02.268Z,100.00
2023-12-14T03:44:05.112Z,100.00
2023-12-14T03:47:07.904Z,100.00
2023-12-14T03:50:12.972Z,100.00
2023-12-14T03:53:15.690Z,100.00
2023-12-14T03:56:18.203Z,100.00
2023-12-14T03:59:20.815Z,100.00
2023-12-14T04:02:23.197Z,100.00
2023-12-14T04:05:25.985Z,100.00
2023-12-14T04:08:28.555Z,100.00
2023-12-14T04:11:31.234Z,100.00
2023-12-14T04:14:33.564Z,100.00
2023-12-14T04:17:36.874Z,100.00
2023-12-14T04:20:39.383Z,100.00
2023-12-14T04:23:42.225Z,99.70
2023-12-14T04:26:45.191Z,100.00
2023-12-14T04:29:47.804Z,100.00
2023-12-14T04:32:50.206Z,100.00
2023-12-14T04:35:53.465Z,100.00
2023-12-14T04:38:55.866Z,100.00
2023-12-14T04:41:58.547Z,100.00
2023-12-14T04:45:00.923Z,100.00
2023-12-14T04:48:03.781Z,100.00
2023-12-14T04:51:06.350Z,100.00
2023-12-14T04:54:09.630Z,100.00
2023-12-14T04:57:12.043Z,100.00
2023-12-14T05:00:15.211Z,100.00
2023-12-14T05:03:17.659Z,100.00
2023-12-14T05:06:20.744Z,100.00
2023-12-14T05:09:23.256Z,100.00
2023-12-14T05:12:28.005Z,100.00
2023-12-14T05:15:30.326Z,100.00
2023-12-14T05:18:33.155Z,100.00
2023-12-14T05:21:35.606Z,100.00
2023-12-14T05:24:38.265Z,100.00
2023-12-14T05:27:40.632Z,100.00
2023-12-14T05:30:43.829Z,100.00
2023-12-14T05:33:46.407Z,100.00
2023-12-14T05:36:49.098Z,100.00
2023-12-14T05:39:51.486Z,100.00
2023-12-14T05:42:54.206Z,100.00
2023-12-14T05:45:56.559Z,100.00
2023-12-14T05:48:59.296Z,100.00
2023-12-14T05:52:01.728Z,100.00
2023-12-14T05:55:05.805Z,100.00
2023-12-14T05:58:08.779Z,100.00
2023-12-14T06:01:11.435Z,100.00
2023-12-14T06:04:14.171Z,100.00
2023-12-14T06:07:17.071Z,100.00
2023-12-14T06:10:19.904Z,100.00
2023-12-14T06:13:22.619Z,100.00
2023-12-14T06:16:25.318Z,100.00
2023-12-14T06:19:27.737Z,100.00
2023-12-14T06:22:30.393Z,100.00
2023-12-14T06:25:32.865Z,100.00
2023-12-14T06:28:35.705Z,100.00
2023-12-14T06:31:38.739Z,100.00
2023-12-14T06:34:41.431Z,100.00
2023-12-14T06:37:43.957Z,100.00
2023-12-14T06:40:46.834Z,100.00
2023-12-14T06:43:49.803Z,100.00
2023-12-14T06:46:52.460Z,100.00
2023-12-14T06:49:54.966Z,100.00
2023-12-14T06:52:57.615Z,100.00
2023-12-14T06:56:00.120Z,100.00
2023-12-14T06:59:02.856Z,100.00
2023-12-14T07:02:05.377Z,100.00
2023-12-14T07:05:08.293Z,100.00
2023-12-14T07:08:10.799Z,100.00
2023-12-14T07:11:13.919Z,100.00
2023-12-14T07:14:16.759Z,100.00
2023-12-14T07:17:20.088Z,100.00
2023-12-14T07:20:23.030Z,100.00
2023-12-14T07:23:25.785Z,100.00
2023-12-14T07:26:28.227Z,100.00
2023-12-14T07:29:30.893Z,100.00
2023-12-14T07:32:33.433Z,100.00
2023-12-14T07:35:36.333Z,100.00
2023-12-14T07:38:38.718Z,100.00
2023-12-14T07:41:41.401Z,100.00
2023-12-14T07:44:43.733Z,100.00
2023-12-14T07:47:47.746Z,100.00
2023-12-14T07:50:50.328Z,100.00
2023-12-14T07:53:53.024Z,100.00
2023-12-14T07:56:55.453Z,100.00
2023-12-14T07:59:58.440Z,100.00
2023-12-14T08:03:01.806Z,100.00
2023-12-14T08:06:04.732Z,100.00
2023-12-14T08:09:07.703Z,100.00
2023-12-14T08:12:10.374Z,100.00
2023-12-14T08:15:13.547Z,100.00
2023-12-14T08:18:16.353Z,100.00
2023-12-14T08:21:19.808Z,100.00
2023-12-14T08:24:22.895Z,100.00
2023-12-14T08:27:25.245Z,99.68
2023-12-14T08:30:27.918Z,99.66
2023-12-14T08:33:30.630Z,99.90
2023-12-14T08:36:35.744Z,99.70
2023-12-14T08:39:38.141Z,99.65
2023-12-14T08:42:40.732Z,99.45
2023-12-14T08:45:43.184Z,99.66
2023-12-14T08:48:45.850Z,99.19
2023-12-14T08:51:48.236Z,99.15
2023-12-14T08:54:50.876Z,99.19
2023-12-14T08:57:53.943Z,98.83
2023-12-14T09:00:56.725Z,99.29
2023-12-14T09:03:59.231Z,98.74
2023-12-14T09:07:01.969Z,98.42
2023-12-14T09:10:04.709Z,98.32
2023-12-14T09:13:07.554Z,98.05
2023-12-14T09:16:10.092Z,97.69
2023-12-14T09:19:12.973Z,96.93
2023-12-14T09:22:15.503Z,96.98
2023-12-14T09:25:18.193Z,97.10
2023-12-14T09:28:20.620Z,96.61
2023-12-14T09:31:23.382Z,96.43
2023-12-14T09:34:25.877Z,96.43
2023-12-14T09:37:28.613Z,95.79
2023-12-14T09:40:31.424Z,95.35
2023-12-14T09:43:34.901Z,95.15
2023-12-14T09:46:38.991Z,95.12
2023-12-14T09:49:44.187Z,95.13
2023-12-14T09:52:48.758Z,94.81
2023-12-14T09:55:51.500Z,94.18
2023-12-14T09:58:54.884Z,94.32
2023-12-14T10:02:12.376Z,94.05
2023-12-14T10:05:15.272Z,93.45
2023-12-14T10:08:18.423Z,92.96
2023-12-14T10:11:21.170Z,93.15
2023-12-14T10:14:26.670Z,93.33
2023-12-14T10:17:33.912Z,92.91
2023-12-14T10:20:38.788Z,92.75
2023-12-14T10:23:41.496Z,93.19
2023-12-14T10:26:47.411Z,92.95
2023-12-14T10:29:51.986Z,92.69
2023-12-14T10:32:54.496Z,92.64
2023-12-14T10:35:57.933Z,92.30
2023-12-14T10:39:01.870Z,92.25
2023-12-14T10:42:15.042Z,92.21
2023-12-14T10:45:27.517Z,91.89
2023-12-14T10:48:31.886Z,92.00
2023-12-14T10:51:38.386Z,91.76
2023-12-14T10:54:42.725Z,91.78
2023-12-14T10:57:47.574Z,91.82
2023-12-14T11:01:04.052Z,91.98
2023-12-14T11:04:07.697Z,91.93
2023-12-14T11:07:12.102Z,91.84
2023-12-14T11:10:15.849Z,92.28
2023-12-14T11:13:18.757Z,92.32
2023-12-14T11:16:24.932Z,92.58
2023-12-14T11:19:29.932Z,92.74
2023-12-14T11:22:32.595Z,92.57
2023-12-14T11:25:42.386Z,92.36
2023-12-14T11:28:49.607Z,92.09
2023-12-14T11:31:53.278Z,91.90
2023-12-14T11:34:56.728Z,91.81
2023-12-14T11:38:01.240Z,91.78
2023-12-14T11:41:04.442Z,90.86
2023-12-14T11:44:08.285Z,91.25
2023-12-14T11:47:10.795Z,91.19
2023-12-14T11:50:13.917Z,90.88
2023-12-14T11:53:16.455Z,90.91
2023-12-14T11:56:20.291Z,90.31
2023-12-14T11:59:22.863Z,90.50
2023-12-14T12:02:26.816Z,90.39
2023-12-14T12:05:43.609Z,90.02
2023-12-14T12:08:46.236Z,89.74
2023-12-14T12:11:50.082Z,90.05
2023-12-14T12:14:53.894Z,90.32
2023-12-14T12:17:56.618Z,90.29
2023-12-14T12:21:04.906Z,90.31
2023-12-14T12:24:18.431Z,89.64
2023-12-14T12:27:28.930Z,89.19
2023-12-14T12:30:31.776Z,88.54
2023-12-14T12:33:39.623Z,88.69
2023-12-14T12:36:42.837Z,88.35
2023-12-14T12:39:45.223Z,88.77
2023-12-14T12:42:51.428Z,88.68
2023-12-14T12:45:53.824Z,88.69
2023-12-14T12:48:56.612Z,89.33
2023-12-14T12:51:59.061Z,89.10
2023-12-14T12:55:01.972Z,89.33
2023-12-14T12:58:07.133Z,88.98
2023-12-14T13:01:09.839Z,88.94
2023-12-14T13:04:23.003Z,88.98
2023-12-14T13:07:25.721Z,88.87
2023-12-14T13:10:31.943Z,88.81
2023-12-14T13:13:35.570Z,89.02
2023-12-14T13:16:39.198Z,89.46
2023-12-14T13:19:41.937Z,89.68
2023-12-14T13:22:44.324Z,89.88
2023-12-14T13:25:47.120Z,90.11
2023-12-14T13:28:49.830Z,90.21
2023-12-14T13:31:52.562Z,90.20
2023-12-14T13:34:55.054Z,91.11
2023-12-14T13:38:00.789Z,90.92
2023-12-14T13:41:06.790Z,90.84
2023-12-14T13:44:09.698Z,91.24
2023-12-14T13:47:12.218Z,90.82
2023-12-14T13:50:15.011Z,91.44
2023-12-14T13:53:19.446Z,91.32
2023-12-14T13:56:22.347Z,91.61
2023-12-14T13:59:24.775Z,91.38
2023-12-14T14:02:29.760Z,91.52
2023-12-14T14:05:33.770Z,91.37
2023-12-14T14:08:36.615Z,91.60
2023-12-14T14:11:42.512Z,91.87
2023-12-14T14:14:45.009Z,92.15
2023-12-14T14:17:52.787Z,92.57
2023-12-14T14:20:55.301Z,92.76
2023-12-14T14:23:57.928Z,92.68
2023-12-14T14:27:00.391Z,92.25
2023-12-14T14:30:04.300Z,92.58
2023-12-14T14:33:07.628Z,92.85
2023-12-14T14:36:10.997Z,93.20
2023-12-14T14:39:13.992Z,93.44
2023-12-14T14:42:17.272Z,93.74
2023-12-14T14:45:20.301Z,93.65
2023-12-14T14:48:23.100Z,94.07
2023-12-14T14:51:26.736Z,93.59
2023-12-14T14:54:29.484Z,93.64
2023-12-14T14:57:33.617Z,93.74
2023-12-14T15:00:39.895Z,93.88
2023-12-14T15:03:42.568Z,94.02
2023-12-14T15:06:45.528Z,94.20
2023-12-14T15:09:47.941Z,94.47
2023-12-14T15:12:50.548Z,94.84
2023-12-14T15:15:52.963Z,95.28
2023-12-14T15:18:58.648Z,95.49
2023-12-14T15:22:01.087Z,95.54
2023-12-14T15:25:05.320Z,95.79
2023-12-14T15:28:07.744Z,95.80
2023-12-14T15:31:10.509Z,95.75
2023-12-14T15:34:13.089Z,95.82
2023-12-14T15:37:16.166Z,96.07
2023-12-14T15:40:18.561Z,96.24
2023-12-14T15:43:21.228Z,96.58
2023-12-14T15:46:23.667Z,96.85
2023-12-14T15:49:26.362Z,96.80
2023-12-14T15:52:29.451Z,96.96
2023-12-14T15:55:33.755Z,97.09
2023-12-14T15:58:36.272Z,97.18
2023-12-14T16:01:41.320Z,97.21
2023-12-14T16:04:45.867Z,97.40
2023-12-14T16:07:49.440Z,97.32
2023-12-14T16:10:54.644Z,97.54
2023-12-14T16:13:58.076Z,97.65
2023-12-14T16:17:00.800Z,97.54
2023-12-14T16:20:05.385Z,97.43
2023-12-14T16:23:08.258Z,97.65
2023-12-14T16:26:13.879Z,97.64
2023-12-14T16:29:16.584Z,97.80
2023-12-14T16:32:19.594Z,97.88
2023-12-14T16:35:22.412Z,97.91
2023-12-14T16:38:24.856Z,98.20
2023-12-14T16:41:27.551Z,98.19
2023-12-14T16:44:29.978Z,98.46
2023-12-14T16:47:32.756Z,98.16
2023-12-14T16:50:35.183Z,98.46
2023-12-14T16:53:37.866Z,98.15
2023-12-14T16:56:43.941Z,98.02
2023-12-14T16:59:46.958Z,97.28
2023-12-14T17:02:49.342Z,97.44
2023-12-14T17:05:52.086Z,97.34
2023-12-14T17:08:54.567Z,97.12
2023-12-14T17:11:57.190Z,96.89
2023-12-14T17:14:59.535Z,96.49
2023-12-14T17:18:02.490Z,95.93
2023-12-14T17:21:05.848Z,95.67
2023-12-14T17:24:10.681Z,95.21
2023-12-14T17:27:13.106Z,95.23
2023-12-14T17:30:15.900Z,94.54
2023-12-14T17:33:18.404Z,94.67
2023-12-14T17:36:21.330Z,93.60
2023-12-14T17:39:23.860Z,93.82
2023-12-14T17:42:26.433Z,94.11
2023-12-14T17:45:28.848Z,94.08
2023-12-14T17:48:32.394Z,93.99
2023-12-14T17:51:40.495Z,93.94
2023-12-14T17:54:43.219Z,93.60
2023-12-14T17:57:45.591Z,92.97
2023-12-14T18:00:48.405Z,93.69
2023-12-14T18:03:51.130Z,92.87
2023-12-14T18:06:53.686Z,92.87
2023-12-14T18:09:56.359Z,92.71
2023-12-14T18:13:03.044Z,92.95
2023-12-14T18:16:07.994Z,93.12
2023-12-14T18:19:11.608Z,92.90
2023-12-14T18:22:15.999Z,92.80
2023-12-14T18:25:23.184Z,93.15
2023-12-14T18:28:25.957Z,93.29
2023-12-14T18:31:33.884Z,93.01
2023-12-14T18:34:38.772Z,92.71
2023-12-14T18:37:41.303Z,92.99
2023-12-14T18:40:44.043Z,92.96
2023-12-14T18:43:46.462Z,92.47
2023-12-14T18:46:49.170Z,91.98
2023-12-14T18:49:51.765Z,91.64
2023-12-14T18:52:58.044Z,91.22
2023-12-14T18:56:00.817Z,91.70
2023-12-14T18:59:03.634Z,91.30
2023-12-14T19:02:06.134Z,91.44
2023-12-14T19:05:12.173Z,91.50
2023-12-14T19:08:14.795Z,91.34
2023-12-14T19:11:19.083Z,91.50
2023-12-14T19:14:21.713Z,91.56
2023-12-14T19:17:25.062Z,91.88
2023-12-14T19:20:27.713Z,92.18
2023-12-14T19:23:30.505Z,91.95
2023-12-14T19:26:35.079Z,91.67
2023-12-14T19:29:37.853Z,90.33
2023-12-14T19:32:41.390Z,90.22
2023-12-14T19:35:44.234Z,90.73
2023-12-14T19:38:50.561Z,90.46
2023-12-14T19:41:53.271Z,90.00
2023-12-14T19:44:55.721Z,90.37
2023-12-14T19:47:58.754Z,91.05
2023-12-14T19:51:01.239Z,90.92
2023-12-14T19:54:03.929Z,91.06
2023-12-14T19:57:06.264Z,91.28
2023-12-14T20:00:10.722Z,90.98
2023-12-14T20:03:13.837Z,91.29
2023-12-14T20:06:23.299Z,91.13
2023-12-14T20:09:26.108Z,91.40
2023-12-14T20:12:29.334Z,91.83
2023-12-14T20:15:31.933Z,90.84
2023-12-14T20:18:39.396Z,90.95
2023-12-14T20:21:42.202Z,91.13
2023-12-14T20:24:47.974Z,91.21
2023-12-14T20:27:51.565Z,91.83
2023-12-14T20:30:54.064Z,92.06
2023-12-14T20:33:56.975Z,92.09
2023-12-14T20:36:59.410Z,92.12
2023-12-14T20:40:12.101Z,92.14
2023-12-14T20:43:14.521Z,92.11
2023-12-14T20:46:17.204Z,92.17
2023-12-14T20:49:21.027Z,92.37
2023-12-14T20:52:23.981Z,93.18
2023-12-14T20:55:26.742Z,92.68
2023-12-14T20:58:31.208Z,92.81
2023-12-14T21:01:34.233Z,92.95
2023-12-14T21:04:37.079Z,93.63
2023-12-14T21:07:39.903Z,93.51
2023-12-14T21:10:43.048Z,93.69
2023-12-14T21:13:46.364Z,94.10
2023-12-14T21:16:53.071Z,94.44
2023-12-14T21:19:56.631Z,94.58
2023-12-14T21:22:59.470Z,94.57
2023-12-14T21:26:06.020Z,94.50
2023-12-14T21:29:09.500Z,94.58
2023-12-14T21:32:12.006Z,95.21
2023-12-14T21:35:15.568Z,95.15
2023-12-14T21:38:18.232Z,95.20
2023-12-14T21:41:21.051Z,94.82
2023-12-14T21:44:23.673Z,94.61
2023-12-14T21:47:26.745Z,94.84
2023-12-14T21:50:29.193Z,94.84
2023-12-14T21:53:32.034Z,94.67
2023-12-14T21:56:34.562Z,94.95
2023-12-14T21:59:37.376Z,95.16
2023-12-14T22:02:39.824Z,95.41
2023-12-14T22:05:42.821Z,95.15
2023-12-14T22:08:46.235Z,95.00
2023-12-14T22:11:49.136Z,94.97
2023-12-14T22:14:51.748Z,94.83
2023-12-14T22:17:54.533Z,94.67
2023-12-14T22:20:57.045Z,94.54
2023-12-14T22:23:59.952Z,94.22
2023-12-14T22:27:03.279Z,93.88
2023-12-14T22:30:08.887Z,94.02
2023-12-14T22:33:12.235Z,93.69
2023-12-14T22:36:14.981Z,93.88
2023-12-14T22:39:17.434Z,93.79
2023-12-14T22:42:20.368Z,93.96
2023-12-14T22:45:22.759Z,93.69
2023-12-14T22:48:25.555Z,93.30
2023-12-14T22:51:27.993Z,92.80
2023-12-14T22:54:30.898Z,92.81
2023-12-14T22:57:33.270Z,93.09
2023-12-14T23:00:39.537Z,93.07
2023-12-14T23:03:42.566Z,92.84
2023-12-14T23:06:45.659Z,92.59
2023-12-14T23:09:48.034Z,92.65
2023-12-14T23:12:50.819Z,92.63
2023-12-14T23:15:53.253Z,92.51
2023-12-14T23:18:56.681Z,92.60
2023-12-14T23:22:00.713Z,93.24
2023-12-14T23:25:03.822Z,92.83
2023-12-14T23:28:07.836Z,93.07
2023-12-14T23:31:10.666Z,93.09
2023-12-14T23:34:13.187Z,93.18
2023-12-14T23:37:15.878Z,92.99
2023-12-14T23:40:18.257Z,92.81
2023-12-14T23:43:20.985Z,92.90
2023-12-14T23:46:23.684Z,92.84
2023-12-14T23:49:26.513Z,92.79
2023-12-14T23:52:29.190Z,92.89
2023-12-14T23:55:32.024Z,92.94
2023-12-14T23:58:34.381Z,93.51
